createdAt,value
2018-03-26T00:01:14.958Z,96.95
2018-03-26T00:03:44.047Z,97.12
2018-03-26T00:06:13.271Z,97.76
2018-03-26T00:08:42.433Z,98.48
2018-03-26T00:11:11.567Z,96.55
2018-03-26T00:13:40.765Z,96.16
2018-03-26T00:16:10.025Z,96.09
2018-03-26T00:18:39.074Z,96.11
2018-03-26T00:21:08.460Z,96.87
2018-03-26T00:23:37.468Z,96.35
2018-03-26T00:26:06.447Z,97.32
2018-03-26T00:28:35.445Z,98.83
2018-03-26T00:31:04.702Z,98.58
2018-03-26T00:33:33.842Z,98.99
2018-03-26T00:36:02.998Z,99.32
2018-03-26T00:38:32.161Z,99.25
2018-03-26T00:41:01.111Z,99.92
2018-03-26T00:43:30.177Z,99.92
2018-03-26T00:45:59.336Z,97.01
2018-03-26T00:48:28.480Z,97.94
2018-03-26T00:50:57.641Z,97.60
2018-03-26T00:53:38.000Z,97.51
2018-03-26T00:56:06.965Z,96.53
2018-03-26T00:58:36.131Z,94.37
2018-03-26T01:01:05.322Z,93.70
2018-03-26T01:03:34.425Z,94.22
2018-03-26T01:06:03.449Z,95.31
2018-03-26T01:08:32.713Z,94.59
2018-03-26T01:11:01.853Z,94.90
2018-03-26T01:13:31.053Z,95.88
2018-03-26T01:16:00.211Z,96.74
2018-03-26T01:18:29.308Z,95.98
2018-03-26T01:20:58.443Z,95.31
2018-03-26T01:23:28.282Z,94.42
2018-03-26T01:25:57.445Z,94.86
2018-03-26T01:28:26.727Z,95.74
2018-03-26T01:30:55.847Z,96.02
2018-03-26T01:33:25.009Z,93.98
2018-03-26T01:35:54.097Z,94.43
2018-03-26T01:38:23.337Z,94.75
2018-03-26T01:40:52.267Z,94.54
2018-03-26T01:43:21.557Z,93.92
2018-03-26T01:45:50.650Z,93.87
2018-03-26T01:48:19.896Z,93.33
2018-03-26T01:50:48.946Z,94.83
2018-03-26T01:53:18.051Z,94.83
2018-03-26T01:55:47.231Z,95.45
2018-03-26T01:58:16.259Z,96.12
2018-03-26T02:00:45.370Z,96.66
2018-03-26T02:03:14.608Z,96.74
2018-03-26T02:05:43.661Z,96.89
2018-03-26T02:08:13.729Z,96.28
2018-03-26T02:10:42.774Z,96.58
2018-03-26T02:13:11.865Z,96.56
2018-03-26T02:15:40.997Z,95.69
2018-03-26T02:18:10.339Z,94.90
2018-03-26T02:20:39.324Z,95.11
2018-03-26T02:23:08.438Z,94.78
2018-03-26T02:25:37.763Z,95.50
2018-03-26T02:28:07.003Z,95.74
2018-03-26T02:30:36.000Z,95.22
2018-03-26T02:33:05.298Z,94.90
2018-03-26T02:35:34.441Z,95.01
2018-03-26T02:38:03.653Z,94.27
2018-03-26T02:40:32.852Z,94.76
2018-03-26T02:43:01.979Z,94.13
2018-03-26T02:45:31.152Z,94.53
2018-03-26T02:48:00.292Z,93.85
2018-03-26T02:50:29.299Z,94.38
2018-03-26T02:52:58.449Z,94.50
2018-03-26T02:55:27.414Z,94.74
2018-03-26T02:57:56.831Z,94.73
2018-03-26T03:00:26.127Z,95.25
2018-03-26T03:02:55.107Z,95.00
2018-03-26T03:05:24.060Z,95.63
2018-03-26T03:07:53.055Z,94.70
2018-03-26T03:10:21.983Z,95.10
2018-03-26T03:12:50.970Z,96.53
2018-03-26T03:15:20.098Z,96.17
2018-03-26T03:17:49.177Z,94.75
2018-03-26T03:20:18.276Z,95.00
2018-03-26T03:22:47.509Z,94.32
2018-03-26T03:25:16.713Z,93.97
2018-03-26T03:27:45.869Z,95.27
2018-03-26T03:30:14.956Z,95.45
2018-03-26T03:32:43.966Z,94.85
2018-03-26T03:35:12.978Z,95.61
2018-03-26T03:37:42.159Z,96.13
2018-03-26T03:40:11.293Z,96.95
2018-03-26T03:42:40.442Z,95.45
2018-03-26T03:45:09.454Z,95.02
2018-03-26T03:47:38.443Z,94.62
2018-03-26T03:50:07.653Z,95.38
2018-03-26T03:52:36.866Z,95.60
2018-03-26T03:55:05.845Z,97.43
2018-03-26T03:57:34.779Z,95.39
2018-03-26T04:00:03.898Z,95.84
2018-03-26T04:02:32.942Z,95.27
2018-03-26T04:05:02.070Z,96.60
2018-03-26T04:07:31.190Z,97.26
2018-03-26T04:10:00.144Z,96.39
2018-03-26T04:12:29.271Z,94.90
2018-03-26T04:14:58.422Z,95.03
2018-03-26T04:17:27.537Z,94.53
2018-03-26T04:19:56.522Z,95.28
2018-03-26T04:22:25.678Z,96.26
2018-03-26T04:24:54.782Z,96.01
2018-03-26T04:27:23.921Z,96.29
2018-03-26T04:29:52.946Z,96.85
2018-03-26T04:32:22.010Z,97.77
2018-03-26T04:34:51.205Z,98.14
2018-03-26T04:37:20.165Z,96.56
2018-03-26T04:39:49.248Z,95.88
2018-03-26T04:42:18.242Z,96.04
2018-03-26T04:44:47.157Z,96.07
2018-03-26T04:47:16.165Z,96.59
2018-03-26T04:49:45.167Z,98.47
2018-03-26T04:52:14.371Z,98.61
2018-03-26T04:54:43.593Z,99.73
2018-03-26T04:57:12.671Z,99.30
2018-03-26T04:59:41.971Z,99.77
2018-03-26T05:02:11.136Z,99.53
2018-03-26T05:04:40.112Z,97.25
2018-03-26T05:07:09.247Z,97.44
2018-03-26T05:09:38.237Z,97.32
2018-03-26T05:12:07.281Z,99.95
2018-03-26T05:14:36.481Z,100.00
2018-03-26T05:17:05.691Z,99.82
2018-03-26T05:19:34.783Z,99.83
2018-03-26T05:22:03.919Z,98.39
2018-03-26T05:24:33.069Z,96.52
2018-03-26T05:27:02.014Z,97.07
2018-03-26T05:29:31.213Z,96.61
2018-03-26T05:32:00.357Z,96.03
2018-03-26T05:34:29.918Z,95.79
2018-03-26T05:36:59.230Z,93.29
2018-03-26T05:39:28.361Z,93.77
2018-03-26T05:41:57.386Z,94.63
2018-03-26T05:44:26.720Z,94.01
2018-03-26T05:46:55.847Z,95.02
2018-03-26T05:49:24.853Z,95.49
2018-03-26T05:51:53.891Z,95.24
2018-03-26T05:54:22.942Z,96.13
2018-03-26T05:56:51.929Z,95.55
2018-03-26T05:59:21.125Z,96.34
2018-03-26T06:01:50.229Z,95.04
2018-03-26T06:04:19.827Z,96.38
2018-03-26T06:06:48.935Z,96.37
2018-03-26T06:09:18.182Z,96.72
2018-03-26T06:11:48.250Z,96.51
2018-03-26T06:14:17.241Z,95.04
2018-03-26T06:16:57.831Z,94.82
2018-03-26T06:19:26.801Z,94.70
2018-03-26T06:21:56.038Z,94.65
2018-03-26T06:24:24.991Z,95.03
2018-03-26T06:26:53.986Z,95.80
2018-03-26T06:29:23.059Z,95.93
2018-03-26T06:31:52.024Z,95.21
2018-03-26T06:34:20.935Z,96.58
2018-03-26T06:39:55.641Z,97.34
2018-03-26T06:42:24.871Z,97.10
2018-03-26T06:44:53.934Z,96.45
2018-03-26T06:47:23.317Z,95.59
2018-03-26T06:49:52.531Z,96.23
2018-03-26T06:52:21.694Z,96.19
2018-03-26T06:54:50.846Z,97.27
2018-03-26T06:57:19.909Z,97.06
2018-03-26T06:59:49.327Z,96.77
2018-03-26T07:02:18.405Z,96.62
2018-03-26T07:04:47.953Z,97.18
2018-03-26T07:07:17.122Z,97.46
2018-03-26T07:09:46.247Z,97.32
2018-03-26T07:12:15.350Z,97.74
2018-03-26T07:14:44.586Z,97.92
2018-03-26T07:17:13.947Z,98.02
2018-03-26T07:19:43.055Z,97.42
2018-03-26T07:22:12.813Z,97.72
2018-03-26T07:24:41.915Z,96.70
2018-03-26T07:27:10.994Z,96.26
2018-03-26T07:29:40.229Z,97.03
2018-03-26T07:32:09.308Z,96.38
2018-03-26T07:34:38.271Z,95.74
2018-03-26T07:37:07.341Z,95.83
2018-03-26T07:39:37.077Z,95.57
2018-03-26T07:42:06.157Z,96.73
2018-03-26T07:44:35.335Z,96.62
2018-03-26T07:47:04.574Z,97.67
2018-03-26T07:49:33.834Z,97.71
2018-03-26T07:52:02.795Z,96.23
2018-03-26T07:54:31.945Z,97.14
2018-03-26T07:57:01.350Z,96.54
2018-03-26T07:59:30.295Z,96.53
2018-03-26T08:01:59.514Z,95.81
2018-03-26T08:04:28.790Z,95.40
2018-03-26T08:06:57.987Z,97.82
2018-03-26T08:09:27.028Z,97.44
2018-03-26T08:11:57.069Z,97.85
2018-03-26T08:14:26.339Z,96.98
2018-03-26T08:16:55.514Z,95.61
2018-03-26T08:19:24.510Z,95.05
2018-03-26T08:21:54.026Z,95.76
2018-03-26T08:24:23.531Z,95.58
2018-03-26T08:26:52.957Z,93.60
2018-03-26T08:29:22.245Z,92.36
2018-03-26T08:31:51.914Z,94.28
2018-03-26T08:34:21.307Z,93.49
2018-03-26T08:36:50.647Z,92.72
2018-03-26T08:39:19.793Z,92.50
2018-03-26T08:41:49.142Z,91.52
2018-03-26T08:44:18.267Z,91.33
2018-03-26T08:46:47.442Z,93.67
2018-03-26T08:49:16.409Z,92.98
2018-03-26T08:51:45.631Z,90.91
2018-03-26T08:54:14.642Z,92.12
2018-03-26T08:56:43.645Z,91.61
2018-03-26T08:59:12.837Z,89.68
2018-03-26T09:01:42.320Z,89.72
2018-03-26T09:04:11.582Z,90.48
2018-03-26T09:06:40.783Z,90.69
2018-03-26T09:09:09.920Z,89.62
2018-03-26T09:11:39.166Z,91.17
2018-03-26T09:14:08.411Z,92.14
2018-03-26T09:16:37.485Z,91.61
2018-03-26T09:19:06.665Z,91.48
2018-03-26T09:21:35.900Z,90.70
2018-03-26T09:24:05.067Z,91.34
2018-03-26T09:26:34.170Z,92.30
2018-03-26T09:29:03.302Z,91.03
2018-03-26T09:31:32.705Z,91.39
2018-03-26T09:34:01.728Z,92.62
2018-03-26T09:36:30.837Z,93.06
2018-03-26T09:38:59.900Z,93.50
2018-03-26T09:41:29.243Z,93.20
2018-03-26T09:43:58.599Z,94.05
2018-03-26T09:46:27.787Z,94.08
2018-03-26T09:48:56.970Z,95.59
2018-03-26T09:51:26.442Z,95.17
2018-03-26T09:53:55.475Z,93.34
2018-03-26T09:56:24.619Z,92.87
2018-03-26T09:58:53.782Z,93.29
2018-03-26T10:01:22.957Z,95.69
2018-03-26T10:03:52.241Z,94.50
2018-03-26T10:06:21.430Z,95.62
2018-03-26T10:08:50.517Z,96.37
2018-03-26T10:11:19.681Z,96.45
2018-03-26T10:13:48.969Z,94.84
2018-03-26T10:16:18.378Z,95.31
2018-03-26T10:18:47.395Z,96.78
2018-03-26T10:21:16.631Z,96.30
2018-03-26T10:23:45.687Z,96.38
2018-03-26T10:26:14.943Z,95.16
2018-03-26T10:28:44.125Z,95.83
2018-03-26T10:31:13.421Z,95.56
2018-03-26T10:33:43.483Z,96.14
2018-03-26T10:36:12.722Z,96.61
2018-03-26T10:38:41.926Z,95.55
2018-03-26T10:41:11.218Z,94.92
2018-03-26T10:43:40.522Z,94.90
2018-03-26T10:46:09.771Z,94.85
2018-03-26T10:48:38.913Z,96.38
2018-03-26T10:51:08.024Z,94.49
2018-03-26T10:53:37.119Z,93.92
2018-03-26T10:56:06.472Z,93.85
2018-03-26T10:58:35.870Z,95.51
2018-03-26T11:01:05.205Z,93.24
2018-03-26T11:03:34.458Z,91.60
2018-03-26T11:06:03.617Z,89.55
2018-03-26T11:08:32.768Z,89.82
2018-03-26T11:11:02.023Z,87.24
2018-03-26T11:13:31.293Z,89.45
2018-03-26T11:16:01.165Z,90.18
2018-03-26T11:18:30.245Z,91.16
2018-03-26T11:20:59.407Z,91.34
2018-03-26T11:23:28.655Z,89.31
2018-03-26T11:25:58.129Z,90.00
2018-03-26T11:28:27.280Z,90.51
2018-03-26T11:30:56.477Z,90.53
2018-03-26T11:33:25.674Z,87.36
2018-03-26T11:35:54.726Z,90.78
2018-03-26T11:38:24.392Z,91.72
2018-03-26T11:40:53.515Z,88.89
2018-03-26T11:43:22.706Z,84.11
2018-03-26T11:45:51.955Z,84.35
2018-03-26T11:48:21.170Z,83.47
2018-03-26T11:50:50.234Z,86.47
2018-03-26T11:53:19.514Z,85.12
2018-03-26T11:55:48.768Z,82.75
2018-03-26T11:58:18.119Z,81.37
2018-03-26T12:00:47.613Z,82.74
2018-03-26T12:03:16.919Z,84.03
2018-03-26T12:05:46.170Z,81.83
2018-03-26T12:08:15.458Z,79.03
2018-03-26T12:10:44.649Z,78.35
2018-03-26T12:13:13.917Z,75.92
2018-03-26T12:15:43.217Z,76.26
2018-03-26T12:18:12.360Z,76.82
2018-03-26T12:20:53.184Z,75.78
2018-03-26T12:23:33.745Z,75.92
2018-03-26T12:26:02.599Z,75.61
2018-03-26T12:28:43.107Z,72.03
2018-03-26T12:31:12.125Z,74.71
2018-03-26T12:33:52.702Z,75.86
2018-03-26T12:36:21.948Z,75.09
2018-03-26T12:38:51.277Z,76.39
2018-03-26T12:41:20.606Z,72.42
2018-03-26T12:43:49.946Z,71.03
2018-03-26T12:46:30.497Z,68.00
2018-03-26T12:48:59.547Z,68.98
2018-03-26T12:51:40.175Z,69.95
2018-03-26T12:54:09.290Z,68.88
2018-03-26T12:56:38.548Z,72.82
2018-03-26T12:59:07.814Z,73.97
2018-03-26T13:01:48.624Z,70.75
2018-03-26T13:04:17.587Z,66.54
2018-03-26T13:06:47.006Z,69.35
2018-03-26T13:09:16.222Z,72.05
2018-03-26T13:11:45.402Z,67.83
2018-03-26T13:14:14.625Z,67.46
2018-03-26T13:16:43.847Z,66.95
2018-03-26T13:19:12.971Z,69.72
2018-03-26T13:21:42.343Z,66.03
2018-03-26T13:24:11.718Z,67.59
2018-03-26T13:26:40.845Z,66.86
2018-03-26T13:29:10.231Z,71.82
2018-03-26T13:31:39.342Z,73.72
2018-03-26T13:34:08.601Z,75.42
2018-03-26T13:36:37.880Z,75.20
2018-03-26T13:39:07.323Z,77.51
2018-03-26T13:41:36.642Z,77.44
2018-03-26T13:44:06.026Z,72.54
2018-03-26T13:46:36.253Z,76.21
2018-03-26T13:49:05.717Z,74.01
2018-03-26T13:51:34.867Z,72.34
2018-03-26T13:54:04.267Z,73.33
2018-03-26T13:56:33.643Z,72.65
2018-03-26T13:59:02.914Z,74.84
2018-03-26T14:01:32.491Z,77.66
2018-03-26T14:04:01.839Z,78.14
2018-03-26T14:06:31.015Z,78.67
2018-03-26T14:12:16.572Z,77.16
2018-03-26T14:14:57.141Z,76.72
2018-03-26T14:17:38.214Z,76.29
2018-03-26T14:20:07.573Z,77.18
2018-03-26T14:22:36.743Z,79.05
2018-03-26T14:25:06.079Z,79.90
2018-03-26T14:27:35.279Z,80.88
2018-03-26T14:30:04.804Z,81.53
2018-03-26T14:32:34.098Z,82.24
2018-03-26T14:35:14.621Z,83.31
2018-03-26T14:37:44.190Z,84.81
2018-03-26T14:40:13.669Z,88.72
2018-03-26T14:42:43.058Z,88.35
2018-03-26T14:45:12.511Z,88.52
2018-03-26T14:47:41.805Z,88.11
2018-03-26T14:50:11.891Z,90.64
2018-03-26T14:52:41.364Z,93.18
2018-03-26T14:55:10.629Z,93.20
2018-03-26T14:57:39.833Z,93.67
2018-03-26T15:00:09.131Z,94.20
2018-03-26T15:02:38.394Z,93.19
2018-03-26T15:05:07.751Z,93.02
2018-03-26T15:07:36.977Z,93.71
2018-03-26T15:10:06.331Z,94.76
2018-03-26T15:12:35.841Z,93.63
2018-03-26T15:15:05.032Z,93.79
2018-03-26T15:17:34.290Z,93.91
2018-03-26T15:20:03.620Z,95.12
2018-03-26T15:22:32.981Z,94.81
2018-03-26T15:25:02.241Z,93.39
2018-03-26T15:27:31.502Z,95.54
2018-03-26T15:30:00.751Z,93.17
2018-03-26T15:32:30.178Z,94.50
2018-03-26T15:34:59.405Z,94.31
2018-03-26T15:37:29.152Z,95.25
2018-03-26T15:39:58.546Z,95.64
2018-03-26T15:42:27.900Z,96.37
2018-03-26T15:44:57.246Z,95.23
2018-03-26T15:47:26.388Z,96.12
2018-03-26T15:49:55.527Z,96.35
2018-03-26T15:52:24.640Z,97.28
2018-03-26T15:54:53.933Z,97.38
2018-03-26T15:57:23.075Z,98.17
2018-03-26T15:59:52.247Z,97.83
2018-03-26T16:02:21.490Z,98.31
2018-03-26T16:04:50.619Z,97.19
2018-03-26T16:07:19.820Z,97.81
2018-03-26T16:09:48.986Z,98.09
2018-03-26T16:12:18.152Z,96.84
2018-03-26T16:14:47.533Z,97.55
2018-03-26T16:17:16.629Z,96.69
2018-03-26T16:19:45.779Z,97.09
2018-03-26T16:22:14.925Z,97.72
2018-03-26T16:24:44.121Z,97.32
2018-03-26T16:27:13.510Z,96.92
2018-03-26T16:29:42.702Z,97.94
2018-03-26T16:32:12.009Z,99.28
2018-03-26T16:34:41.118Z,98.34
2018-03-26T16:37:10.418Z,97.97
2018-03-26T16:39:39.802Z,98.49
2018-03-26T16:42:27.880Z,99.12
2018-03-26T16:44:56.860Z,97.52
2018-03-26T16:47:26.284Z,98.81
2018-03-26T16:49:55.554Z,99.51
2018-03-26T16:52:24.671Z,99.86
2018-03-26T16:54:53.983Z,99.60
2018-03-26T16:57:23.103Z,100.00
2018-03-26T16:59:52.230Z,99.79
2018-03-26T17:02:21.582Z,99.76
2018-03-26T17:04:50.858Z,99.18
2018-03-26T17:07:19.929Z,99.41
2018-03-26T17:09:49.380Z,100.00
2018-03-26T17:12:18.598Z,99.25
2018-03-26T17:14:47.677Z,99.50
2018-03-26T17:17:16.757Z,99.45
2018-03-26T17:19:46.005Z,99.35
2018-03-26T17:22:15.296Z,100.00
2018-03-26T17:24:44.435Z,100.00
2018-03-26T17:27:13.645Z,98.97
2018-03-26T17:29:42.820Z,97.87
2018-03-26T17:32:11.828Z,99.13
2018-03-26T17:34:41.011Z,99.76
2018-03-26T17:37:10.206Z,98.91
2018-03-26T17:39:39.265Z,99.56
2018-03-26T17:42:08.696Z,98.68
2018-03-26T17:44:37.894Z,99.86
2018-03-26T17:47:07.124Z,98.56
2018-03-26T17:49:37.041Z,97.32
2018-03-26T17:52:06.099Z,96.52
2018-03-26T17:54:35.442Z,98.12
2018-03-26T17:57:04.706Z,99.06
2018-03-26T17:59:33.828Z,99.51
2018-03-26T18:02:02.954Z,99.04
2018-03-26T18:04:32.177Z,98.33
2018-03-26T18:07:04.712Z,99.39
2018-03-26T18:09:33.980Z,98.06
2018-03-26T18:12:03.066Z,98.83
2018-03-26T18:14:32.155Z,97.39
2018-03-26T18:17:01.347Z,97.37
2018-03-26T18:19:30.454Z,97.76
2018-03-26T18:21:59.905Z,97.49
2018-03-26T18:24:29.191Z,98.23
2018-03-26T18:26:58.521Z,99.53
2018-03-26T18:29:27.950Z,99.85
2018-03-26T18:31:57.300Z,100.00
2018-03-26T18:34:26.329Z,99.89
2018-03-26T18:36:55.450Z,97.84
2018-03-26T18:39:24.615Z,98.11
2018-03-26T18:41:53.799Z,96.43
2018-03-26T18:44:23.188Z,98.06
2018-03-26T18:46:52.263Z,99.10
2018-03-26T18:49:21.441Z,99.81
2018-03-26T18:51:50.509Z,100.00
2018-03-26T18:54:19.802Z,100.00
2018-03-26T18:56:49.018Z,100.00
2018-03-26T18:59:18.134Z,100.00
2018-03-26T19:01:47.403Z,100.00
2018-03-26T19:04:17.091Z,100.00
2018-03-26T19:06:46.193Z,98.13
2018-03-26T19:09:15.394Z,98.38
2018-03-26T19:11:44.476Z,98.65
2018-03-26T19:14:13.595Z,98.92
2018-03-26T19:16:42.731Z,99.33
2018-03-26T19:19:11.805Z,99.28
2018-03-26T19:21:40.991Z,100.00
2018-03-26T19:24:10.073Z,100.00
2018-03-26T19:26:39.287Z,100.00
2018-03-26T19:29:08.460Z,100.00
2018-03-26T19:31:37.595Z,100.00
2018-03-26T19:34:06.681Z,100.00
2018-03-26T19:36:35.788Z,99.41
2018-03-26T19:39:06.942Z,99.42
2018-03-26T19:41:36.009Z,99.36
2018-03-26T19:44:05.175Z,100.00
2018-03-26T19:46:34.221Z,100.00
2018-03-26T19:49:03.313Z,99.11
2018-03-26T19:51:32.411Z,99.90
2018-03-26T19:54:01.514Z,100.00
2018-03-26T19:56:30.531Z,100.00
2018-03-26T19:58:59.698Z,100.00
2018-03-26T20:01:28.972Z,100.00
2018-03-26T20:03:58.193Z,100.00
2018-03-26T20:06:27.415Z,100.00
2018-03-26T20:08:56.541Z,98.48
2018-03-26T20:11:25.726Z,98.81
2018-03-26T20:13:54.750Z,99.43
2018-03-26T20:16:23.837Z,99.64
2018-03-26T20:18:53.019Z,100.00
2018-03-26T20:21:22.381Z,99.98
2018-03-26T20:23:51.650Z,100.00
2018-03-26T20:26:20.661Z,100.00
2018-03-26T20:28:49.773Z,100.00
2018-03-26T20:31:18.980Z,100.00
2018-03-26T20:33:48.143Z,100.00
2018-03-26T20:36:17.223Z,97.92
2018-03-26T20:38:46.511Z,99.06
2018-03-26T20:41:15.667Z,99.92
2018-03-26T20:43:45.214Z,100.00
2018-03-26T20:46:14.573Z,99.90
2018-03-26T20:48:43.897Z,100.00
2018-03-26T20:51:13.145Z,100.00
2018-03-26T20:53:42.329Z,100.00
2018-03-26T20:56:11.495Z,100.00
2018-03-26T20:58:40.671Z,100.00
2018-03-26T21:01:09.981Z,100.00
2018-03-26T21:03:39.087Z,100.00
2018-03-26T21:06:08.336Z,100.00
2018-03-26T21:08:37.499Z,100.00
2018-03-26T21:11:06.789Z,100.00
2018-03-26T21:13:35.936Z,100.00
2018-03-26T21:16:05.179Z,100.00
2018-03-26T21:18:34.378Z,100.00
2018-03-26T21:21:03.666Z,99.97
2018-03-26T21:23:32.779Z,100.00
2018-03-26T21:26:02.067Z,100.00
2018-03-26T21:28:31.230Z,99.96
2018-03-26T21:31:00.360Z,100.00
2018-03-26T21:33:29.645Z,100.00
2018-03-26T21:35:58.887Z,100.00
2018-03-26T21:38:27.909Z,99.98
2018-03-26T21:40:57.011Z,98.23
2018-03-26T21:43:26.182Z,99.80
2018-03-26T21:45:55.339Z,100.00
2018-03-26T21:48:24.945Z,99.81
2018-03-26T21:50:54.190Z,99.87
2018-03-26T21:53:23.475Z,100.00
2018-03-26T21:55:52.553Z,99.57
2018-03-26T21:58:21.645Z,99.88
2018-03-26T22:00:50.757Z,100.00
2018-03-26T22:03:19.790Z,99.94
2018-03-26T22:05:48.927Z,99.64
2018-03-26T22:08:18.065Z,98.77
2018-03-26T22:10:47.069Z,98.97
2018-03-26T22:13:16.151Z,98.85
2018-03-26T22:15:45.221Z,98.90
2018-03-26T22:18:14.331Z,99.43
2018-03-26T22:20:43.548Z,99.68
2018-03-26T22:23:12.734Z,99.94
2018-03-26T22:25:41.811Z,99.34
2018-03-26T22:28:11.159Z,99.73
2018-03-26T22:30:40.534Z,100.00
2018-03-26T22:33:09.619Z,99.96
2018-03-26T22:35:38.761Z,99.54
2018-03-26T22:38:07.853Z,99.64
2018-03-26T22:40:37.209Z,99.67
2018-03-26T22:43:06.527Z,98.50
2018-03-26T22:45:35.951Z,99.16
2018-03-26T22:48:05.118Z,99.17
2018-03-26T22:50:34.551Z,99.86
2018-03-26T22:53:03.986Z,100.00
2018-03-26T22:55:33.256Z,100.00
2018-03-26T22:58:02.550Z,100.00
2018-03-26T23:00:31.985Z,100.00
2018-03-26T23:03:01.436Z,100.00
2018-03-26T23:05:31.724Z,100.00
2018-03-26T23:08:00.993Z,100.00
2018-03-26T23:10:30.495Z,100.00
2018-03-26T23:12:59.897Z,100.00
2018-03-26T23:15:29.008Z,100.00
2018-03-26T23:17:58.125Z,100.00
2018-03-26T23:20:27.165Z,100.00
2018-03-26T23:22:56.376Z,100.00
2018-03-26T23:25:25.627Z,100.00
2018-03-26T23:27:54.821Z,100.00
2018-03-26T23:30:23.966Z,100.00
2018-03-26T23:32:53.333Z,99.52
2018-03-26T23:35:22.367Z,100.00
2018-03-26T23:37:51.655Z,100.00
2018-03-26T23:40:20.673Z,100.00
2018-03-26T23:42:49.891Z,100.00
2018-03-26T23:45:19.387Z,100.00
2018-03-26T23:47:48.589Z,100.00
2018-03-26T23:50:17.866Z,100.00
2018-03-26T23:52:46.968Z,100.00
2018-03-26T23:55:16.106Z,100.00
2018-03-26T23:57:45.183Z,99.17
